createdAt,value
2019-02-05T00:04:38.580Z,11.50
2019-02-05T00:07:07.275Z,11.46
2019-02-05T00:09:35.813Z,11.41
2019-02-05T00:12:05.547Z,11.47
2019-02-05T00:14:34.884Z,11.42
2019-02-05T00:17:04.428Z,11.42
2019-02-05T00:19:32.959Z,11.30
2019-02-05T00:22:01.615Z,11.15
2019-02-05T00:24:30.958Z,11.00
2019-02-05T00:26:59.803Z,11.01
2019-02-05T00:29:28.237Z,11.12
2019-02-05T00:31:57.561Z,11.15
2019-02-05T00:34:27.310Z,11.25
2019-02-05T00:36:55.851Z,11.24
2019-02-05T00:39:25.272Z,11.18
2019-02-05T00:42:14.520Z,11.13
2019-02-05T00:44:43.866Z,10.91
2019-02-05T00:47:13.195Z,10.73
2019-02-05T00:49:41.727Z,10.86
2019-02-05T00:52:10.256Z,10.76
2019-02-05T00:54:39.599Z,10.47
2019-02-05T00:57:08.944Z,10.45
2019-02-05T00:59:38.274Z,10.76
2019-02-05T01:05:10.819Z,10.61
2019-02-05T01:07:39.463Z,10.37
2019-02-05T01:10:09.412Z,10.46
2019-02-05T01:12:38.036Z,10.55
2019-02-05T01:15:09.471Z,10.66
2019-02-05T01:17:38.008Z,10.36
2019-02-05T01:20:10.220Z,10.47
2019-02-05T01:22:39.560Z,10.56
2019-02-05T01:25:09.120Z,10.58
2019-02-05T01:27:38.550Z,10.75
2019-02-05T01:30:27.897Z,10.44
2019-02-05T01:32:57.335Z,10.31
2019-02-05T01:35:26.672Z,10.48
2019-02-05T01:37:55.220Z,10.56
2019-02-05T01:40:44.460Z,10.62
2019-02-05T01:43:13.001Z,10.63
2019-02-05T01:45:42.331Z,10.80
2019-02-05T01:48:11.669Z,10.67
2019-02-05T01:50:53.433Z,10.72
2019-02-05T01:53:22.770Z,10.77
2019-02-05T01:55:51.303Z,10.70
2019-02-05T01:58:19.734Z,10.71
2019-02-05T02:00:48.271Z,10.51
2019-02-05T02:03:16.807Z,10.57
2019-02-05T02:05:46.455Z,10.65
2019-02-05T02:08:14.904Z,10.30
2019-02-05T02:10:44.333Z,10.31
2019-02-05T02:13:13.673Z,10.38
2019-02-05T02:15:43.006Z,10.42
2019-02-05T02:18:12.334Z,10.46
2019-02-05T02:20:41.857Z,10.49
2019-02-05T02:23:10.511Z,10.41
2019-02-05T02:25:39.846Z,10.48
2019-02-05T02:28:09.307Z,10.03
2019-02-05T02:30:38.730Z,10.00
2019-02-05T02:33:07.574Z,10.09
2019-02-05T02:35:56.820Z,10.00
2019-02-05T02:38:26.159Z,10.23
2019-02-05T02:40:55.939Z,10.22
2019-02-05T02:43:25.277Z,9.98
2019-02-05T02:46:14.507Z,9.99
2019-02-05T02:48:43.842Z,10.01
2019-02-05T02:51:12.396Z,10.02
2019-02-05T02:53:40.945Z,10.01
2019-02-05T02:56:09.458Z,9.98
2019-02-05T02:58:37.995Z,9.98
2019-02-05T03:01:06.618Z,9.87
2019-02-05T03:03:35.968Z,9.91
2019-02-05T03:06:05.492Z,9.91
2019-02-05T03:08:34.838Z,10.14
2019-02-05T03:11:04.594Z,10.11
2019-02-05T03:13:33.624Z,10.15
2019-02-05T03:16:03.553Z,9.76
2019-02-05T03:18:32.113Z,9.66
2019-02-05T03:21:01.450Z,9.77
2019-02-05T03:23:29.970Z,9.84
2019-02-05T03:25:59.303Z,9.81
2019-02-05T03:28:28.653Z,9.53
2019-02-05T03:30:57.973Z,9.81
2019-02-05T03:33:27.291Z,9.88
2019-02-05T03:35:56.637Z,9.83
2019-02-05T03:38:25.075Z,9.64
2019-02-05T03:41:13.779Z,9.65
2019-02-05T03:43:42.404Z,9.69
2019-02-05T03:46:23.598Z,9.78
2019-02-05T03:48:52.540Z,9.62
2019-02-05T03:54:51.886Z,9.82
2019-02-05T04:01:06.657Z,9.74
2019-02-05T04:04:13.956Z,9.55
2019-02-05T04:07:10.850Z,9.59
2019-02-05T04:10:09.488Z,9.31
2019-02-05T04:13:37.501Z,9.40
2019-02-05T04:16:40.526Z,9.28
2019-02-05T04:19:47.729Z,9.04
2019-02-05T04:22:54.954Z,9.25
2019-02-05T04:26:02.102Z,9.26
2019-02-05T04:28:54.623Z,9.04
2019-02-05T04:32:01.882Z,8.88
2019-02-05T04:35:09.151Z,9.10
2019-02-05T04:38:16.558Z,9.21
2019-02-05T04:41:23.462Z,9.08
2019-02-05T04:44:30.783Z,9.18
2019-02-05T04:47:38.048Z,9.18
2019-02-05T04:50:32.585Z,9.20
2019-02-05T04:53:24.500Z,8.98
2019-02-05T04:56:32.619Z,8.98
2019-02-05T04:59:40.672Z,9.09
2019-02-05T05:02:47.930Z,8.74
2019-02-05T05:05:43.949Z,8.88
2019-02-05T05:08:51.160Z,8.69
2019-02-05T05:11:20.492Z,8.81
2019-02-05T05:13:49.026Z,8.84
2019-02-05T05:16:18.462Z,8.80
2019-02-05T05:18:47.807Z,8.67
2019-02-05T05:23:59.531Z,9.08
2019-02-05T05:26:28.300Z,8.93
2019-02-05T05:28:58.122Z,9.16
2019-02-05T05:31:27.571Z,9.21
2019-02-05T05:33:56.913Z,9.13
2019-02-05T05:36:26.259Z,8.82
2019-02-05T05:39:15.523Z,9.16
2019-02-05T05:41:44.868Z,9.25
2019-02-05T05:44:13.371Z,9.23
2019-02-05T05:46:41.917Z,9.23
2019-02-05T05:49:11.264Z,9.26
2019-02-05T05:51:40.102Z,9.30
2019-02-05T05:54:09.449Z,9.22
2019-02-05T05:56:38.799Z,9.36
2019-02-05T05:59:08.137Z,9.40
2019-02-05T06:01:37.480Z,9.43
2019-02-05T06:04:06.944Z,9.52
2019-02-05T06:06:36.267Z,9.57
2019-02-05T06:12:09.140Z,9.74
2019-02-05T06:14:38.476Z,9.69
2019-02-05T06:17:27.707Z,9.84
2019-02-05T06:19:57.043Z,9.86
2019-02-05T06:22:26.370Z,9.82
2019-02-05T06:24:55.823Z,10.08
2019-02-05T06:27:24.389Z,10.07
2019-02-05T06:29:52.918Z,9.95
2019-02-05T06:32:21.413Z,10.13
2019-02-05T06:34:49.946Z,9.98
2019-02-05T06:37:19.292Z,10.07
2019-02-05T06:39:48.651Z,9.96
2019-02-05T06:42:18.093Z,10.01
2019-02-05T06:44:47.860Z,10.03
2019-02-05T06:47:17.239Z,10.00
2019-02-05T06:49:46.608Z,10.06
2019-02-05T06:52:15.939Z,10.01
2019-02-05T06:54:44.478Z,9.97
2019-02-05T06:57:13.906Z,9.90
2019-02-05T06:59:43.334Z,10.06
2019-02-05T07:02:12.952Z,10.08
2019-02-05T07:04:43.125Z,10.20
2019-02-05T07:07:12.439Z,10.14
2019-02-05T07:09:40.973Z,10.28
2019-02-05T07:12:10.306Z,10.20
2019-02-05T07:14:38.732Z,10.19
2019-02-05T07:17:07.456Z,10.17
2019-02-05T07:19:35.974Z,10.37
2019-02-05T07:22:05.445Z,10.37
2019-02-05T07:24:34.843Z,10.34
2019-02-05T07:27:04.194Z,10.32
2019-02-05T07:29:33.503Z,10.38
2019-02-05T07:32:02.018Z,10.41
2019-02-05T07:34:51.233Z,10.48
2019-02-05T07:37:19.744Z,10.46
2019-02-05T07:39:49.077Z,10.65
2019-02-05T07:42:17.486Z,10.54
2019-02-05T07:44:46.808Z,10.69
2019-02-05T07:47:36.032Z,10.84
2019-02-05T07:50:06.797Z,11.62
2019-02-05T07:52:36.106Z,11.15
2019-02-05T07:55:06.005Z,11.20
2019-02-05T08:00:37.512Z,11.55
2019-02-05T08:03:19.192Z,11.49
2019-02-05T08:05:47.704Z,11.68
2019-02-05T08:08:17.024Z,11.55
2019-02-05T08:10:46.447Z,11.55
2019-02-05T08:16:18.390Z,11.77
2019-02-05T08:18:47.903Z,11.78
2019-02-05T08:21:17.224Z,11.94
2019-02-05T08:23:46.527Z,12.04
2019-02-05T08:26:15.830Z,12.09
2019-02-05T08:28:45.139Z,12.19
2019-02-05T08:31:13.642Z,12.17
2019-02-05T08:36:44.438Z,12.63
2019-02-05T08:39:12.923Z,12.91
2019-02-05T08:44:44.112Z,12.99
2019-02-05T08:50:17.197Z,12.49
2019-02-05T08:52:45.739Z,12.33
2019-02-05T08:55:15.540Z,12.37
2019-02-05T09:00:46.568Z,12.27
2019-02-05T09:03:15.081Z,12.56
2019-02-05T09:08:46.015Z,12.46
2019-02-05T09:14:16.934Z,12.49
2019-02-05T09:16:45.446Z,12.38
2019-02-05T09:25:11.114Z,12.50
2019-02-05T09:27:39.639Z,12.66
2019-02-05T09:30:12.335Z,12.71
2019-02-05T09:35:44.331Z,12.70
2019-02-05T09:38:13.667Z,12.67
2019-02-05T09:40:43.014Z,12.58
2019-02-05T09:43:11.510Z,12.75
2019-02-05T09:45:40.842Z,12.87
2019-02-05T09:48:09.443Z,12.94
2019-02-05T09:50:44.758Z,12.99
2019-02-05T09:53:27.073Z,12.85
2019-02-05T09:55:56.403Z,12.91
2019-02-05T09:58:25.020Z,12.94
2019-02-05T10:00:53.552Z,12.94
2019-02-05T10:03:22.165Z,12.90
2019-02-05T10:05:51.474Z,12.93
2019-02-05T10:08:20.766Z,13.05
2019-02-05T10:10:49.365Z,13.09
2019-02-05T10:13:18.663Z,13.05
2019-02-05T10:15:47.407Z,12.96
2019-02-05T10:18:16.718Z,12.76
2019-02-05T10:20:46.247Z,12.67
2019-02-05T10:23:15.637Z,12.82
2019-02-05T10:25:45.072Z,12.83
2019-02-05T10:28:14.572Z,13.03
2019-02-05T10:34:06.187Z,13.19
2019-02-05T10:36:35.499Z,13.21
2019-02-05T10:42:09.190Z,13.39
2019-02-05T10:44:37.955Z,13.60
2019-02-05T10:47:07.291Z,13.67
2019-02-05T10:49:36.600Z,13.67
2019-02-05T10:52:06.203Z,13.71
2019-02-05T10:54:35.626Z,13.81
2019-02-05T10:57:04.917Z,13.62
2019-02-05T10:59:33.431Z,13.55
2019-02-05T11:02:02.155Z,13.63
2019-02-05T11:04:30.893Z,13.56
2019-02-05T11:07:00.377Z,13.54
2019-02-05T11:09:29.790Z,13.64
2019-02-05T11:11:59.119Z,13.39
2019-02-05T11:14:28.521Z,13.49
2019-02-05T11:17:17.739Z,13.68
2019-02-05T11:19:47.164Z,13.44
2019-02-05T11:22:15.589Z,13.58
2019-02-05T11:24:44.106Z,13.57
2019-02-05T11:27:13.504Z,13.67
2019-02-05T11:32:46.456Z,13.49
2019-02-05T11:35:15.104Z,13.60
2019-02-05T11:37:43.742Z,13.49
2019-02-05T11:43:15.739Z,13.63
2019-02-05T11:45:44.153Z,13.62
2019-02-05T11:48:33.477Z,13.36
2019-02-05T11:51:02.912Z,13.49
2019-02-05T11:53:32.748Z,13.17
2019-02-05T11:56:01.307Z,13.16
2019-02-05T11:58:29.819Z,13.29
2019-02-05T12:01:39.400Z,13.24
2019-02-05T12:04:08.830Z,13.44
2019-02-05T12:06:37.408Z,13.29
2019-02-05T12:09:26.726Z,13.14
2019-02-05T12:11:55.283Z,13.33
2019-02-05T12:14:24.604Z,13.46
2019-02-05T12:16:53.941Z,13.30
2019-02-05T12:19:23.261Z,13.28
2019-02-05T12:22:12.550Z,13.32
2019-02-05T12:24:41.897Z,13.29
2019-02-05T12:27:11.209Z,13.34
2019-02-05T12:29:40.543Z,13.32
2019-02-05T12:32:08.962Z,13.22
2019-02-05T12:34:49.485Z,13.29
2019-02-05T12:37:17.942Z,13.23
2019-02-05T12:39:46.579Z,13.18
2019-02-05T12:42:15.913Z,13.17
2019-02-05T12:44:45.225Z,13.27
2019-02-05T12:47:14.628Z,13.94
2019-02-05T12:49:44.063Z,13.32
2019-02-05T12:52:13.502Z,13.31
2019-02-05T12:54:42.047Z,13.12
2019-02-05T12:57:10.563Z,13.22
2019-02-05T12:59:39.001Z,13.14
2019-02-05T13:02:08.531Z,13.15
2019-02-05T13:04:38.096Z,13.28
2019-02-05T13:07:07.399Z,13.13
2019-02-05T13:09:35.917Z,13.18
2019-02-05T13:12:05.767Z,13.35
2019-02-05T13:14:34.302Z,13.23
2019-02-05T13:20:08.760Z,13.13
2019-02-05T13:22:38.075Z,13.12
2019-02-05T13:25:11.651Z,13.10
2019-02-05T13:27:40.978Z,13.03
2019-02-05T13:33:15.142Z,13.03
2019-02-05T13:35:43.969Z,12.98
2019-02-05T13:38:12.720Z,13.12
2019-02-05T13:40:42.031Z,13.02
2019-02-05T13:43:11.051Z,13.07
2019-02-05T13:45:52.312Z,13.10
2019-02-05T13:48:21.047Z,13.21
2019-02-05T13:50:50.375Z,13.11
2019-02-05T13:53:19.719Z,12.92
2019-02-05T13:55:48.334Z,13.09
2019-02-05T13:58:17.256Z,13.15
2019-02-05T14:00:51.345Z,13.04
2019-02-05T14:03:31.556Z,12.84
2019-02-05T14:06:00.082Z,12.83
2019-02-05T14:08:30.396Z,12.81
2019-02-05T14:10:59.719Z,12.90
2019-02-05T14:13:48.934Z,13.04
2019-02-05T14:16:18.370Z,12.97
2019-02-05T14:18:54.980Z,13.05
2019-02-05T14:21:17.164Z,12.97
2019-02-05T14:23:45.878Z,13.01
2019-02-05T14:28:58.392Z,13.03
2019-02-05T14:31:31.416Z,12.96
2019-02-05T14:33:58.245Z,12.91
2019-02-05T14:39:30.715Z,12.96
2019-02-05T14:42:00.046Z,12.90
2019-02-05T14:44:29.403Z,12.92
2019-02-05T14:46:57.968Z,13.00
2019-02-05T14:49:27.104Z,12.93
2019-02-05T14:51:57.792Z,12.97
2019-02-05T14:54:44.954Z,13.00
2019-02-05T14:57:14.488Z,12.86
2019-02-05T14:59:43.929Z,12.87
2019-02-05T15:02:13.239Z,12.86
2019-02-05T15:04:42.556Z,12.92
2019-02-05T15:07:11.897Z,12.86
2019-02-05T15:09:41.222Z,12.80
2019-02-05T15:12:09.740Z,12.74
2019-02-05T15:14:38.487Z,12.72
2019-02-05T15:17:07.807Z,12.81
2019-02-05T15:19:37.140Z,12.60
2019-02-05T15:22:06.453Z,12.72
2019-02-05T15:24:37.960Z,12.74
2019-02-05T15:27:25.197Z,12.75
2019-02-05T15:29:54.535Z,12.52
2019-02-05T15:32:43.316Z,12.52
2019-02-05T15:35:12.255Z,12.43
2019-02-05T15:37:41.685Z,12.32
2019-02-05T15:40:11.151Z,12.59
2019-02-05T15:42:40.508Z,12.34
2019-02-05T15:48:12.663Z,12.44
2019-02-05T15:50:41.382Z,12.25
2019-02-05T15:53:10.104Z,12.20
2019-02-05T15:55:39.711Z,12.21
2019-02-05T15:58:09.033Z,12.15
2019-02-05T16:00:38.397Z,12.04
2019-02-05T16:03:07.986Z,12.17
2019-02-05T16:05:37.388Z,12.00
2019-02-05T16:08:07.059Z,11.86
2019-02-05T16:10:36.390Z,11.82
2019-02-05T16:13:05.811Z,11.68
2019-02-05T16:18:42.338Z,11.78
2019-02-05T16:21:11.676Z,11.66
2019-02-05T16:23:41.117Z,11.64
2019-02-05T16:26:10.452Z,11.51
2019-02-05T16:28:39.878Z,11.42
2019-02-05T16:31:09.202Z,11.42
2019-02-05T16:33:58.425Z,11.33
2019-02-05T16:36:27.806Z,11.25
2019-02-05T16:38:57.097Z,11.12
2019-02-05T16:41:26.430Z,11.31
2019-02-05T16:43:55.755Z,11.18
2019-02-05T16:46:25.089Z,11.13
2019-02-05T16:48:53.715Z,11.23
2019-02-05T16:51:23.035Z,11.01
2019-02-05T16:56:36.041Z,10.87
2019-02-05T16:59:05.581Z,11.04
2019-02-05T17:01:34.916Z,10.90
2019-02-05T17:04:04.942Z,10.65
2019-02-05T17:06:34.464Z,11.04
2019-02-05T17:15:09.772Z,10.64
2019-02-05T17:17:39.618Z,10.87
2019-02-05T17:20:12.056Z,10.66
2019-02-05T17:22:40.900Z,10.88
2019-02-05T17:25:11.414Z,10.75
2019-02-05T17:27:40.341Z,10.61
2019-02-05T17:30:12.464Z,10.52
2019-02-05T17:32:40.983Z,10.62
2019-02-05T17:35:09.810Z,10.81
2019-02-05T17:37:39.138Z,10.63
2019-02-05T17:40:10.298Z,10.52
2019-02-05T17:42:39.021Z,10.39
2019-02-05T17:45:29.958Z,10.33
2019-02-05T17:48:00.990Z,10.13
2019-02-05T17:50:29.720Z,10.50
2019-02-05T17:56:00.913Z,10.51
2019-02-05T17:58:29.840Z,10.44
2019-02-05T18:03:57.223Z,10.39
2019-02-05T18:06:26.545Z,10.23
2019-02-05T18:08:55.868Z,10.02
2019-02-05T18:11:25.259Z,10.14
2019-02-05T18:13:54.639Z,10.24
2019-02-05T18:16:26.096Z,10.17
2019-02-05T18:21:57.703Z,10.40
2019-02-05T18:24:27.025Z,10.27
2019-02-05T18:26:56.356Z,9.99
2019-02-05T18:29:25.678Z,10.15
2019-02-05T18:31:55.116Z,9.96
2019-02-05T18:34:23.842Z,9.99
2019-02-05T18:36:53.172Z,10.12
2019-02-05T18:39:21.962Z,10.01
2019-02-05T18:41:51.288Z,9.88
2019-02-05T18:44:20.618Z,9.83
2019-02-05T18:46:49.942Z,9.88
2019-02-05T18:52:21.399Z,9.79
2019-02-05T18:54:49.927Z,9.81
2019-02-05T18:57:39.144Z,9.64
2019-02-05T19:00:32.749Z,9.54
2019-02-05T19:03:02.504Z,9.77
2019-02-05T19:05:31.905Z,9.76
2019-02-05T19:08:01.229Z,10.17
2019-02-05T19:10:31.629Z,9.91
2019-02-05T19:16:04.148Z,10.05
2019-02-05T19:18:33.792Z,9.62
2019-02-05T19:21:03.338Z,9.83
2019-02-05T19:23:32.959Z,9.87
2019-02-05T19:26:14.290Z,9.65
2019-02-05T19:28:43.301Z,9.45
2019-02-05T19:31:32.253Z,9.79
2019-02-05T19:34:00.850Z,9.57
2019-02-05T19:36:30.383Z,9.32
2019-02-05T19:38:59.699Z,9.41
2019-02-05T19:44:30.168Z,9.58
2019-02-05T19:47:02.488Z,9.62
2019-02-05T19:52:34.364Z,9.53
2019-02-05T19:55:04.074Z,9.22
2019-02-05T20:00:35.425Z,9.87
2019-02-05T20:06:06.691Z,9.32
2019-02-05T20:08:36.364Z,9.18
2019-02-05T20:11:05.890Z,9.16
2019-02-05T20:13:55.110Z,9.10
2019-02-05T20:16:24.450Z,9.21
2019-02-05T20:18:52.868Z,8.96
2019-02-05T20:21:22.195Z,9.09
2019-02-05T20:23:50.626Z,9.28
2019-02-05T20:26:39.858Z,8.98
2019-02-05T20:29:09.379Z,8.90
2019-02-05T20:31:38.708Z,9.20
2019-02-05T20:34:08.026Z,9.17
2019-02-05T20:36:37.341Z,8.89
2019-02-05T20:42:12.323Z,8.78
2019-02-05T20:44:41.656Z,8.84
2019-02-05T20:50:14.038Z,8.90
2019-02-05T20:52:43.550Z,9.04
2019-02-05T20:55:13.377Z,8.99
2019-02-05T21:00:44.214Z,8.94
2019-02-05T21:03:12.735Z,9.05
2019-02-05T21:05:41.543Z,8.73
2019-02-05T21:08:10.902Z,8.90
2019-02-05T21:10:40.318Z,9.26
2019-02-05T21:13:09.643Z,9.14
2019-02-05T21:15:38.972Z,8.92
2019-02-05T21:18:08.280Z,9.27
2019-02-05T21:20:37.603Z,9.19
2019-02-05T21:23:07.021Z,8.78
2019-02-05T21:25:35.655Z,8.49
2019-02-05T21:28:04.410Z,8.45
2019-02-05T21:33:35.075Z,8.94
2019-02-05T21:36:03.809Z,8.78
2019-02-05T21:38:33.117Z,8.59
2019-02-05T21:41:02.504Z,8.61
2019-02-05T21:43:31.068Z,8.87
2019-02-05T21:46:01.132Z,8.63
2019-02-05T21:48:49.605Z,8.94
2019-02-05T21:51:18.927Z,8.78
2019-02-05T21:53:48.240Z,8.78
2019-02-05T21:56:17.554Z,8.71
2019-02-05T21:58:46.399Z,8.64
2019-02-05T22:01:15.016Z,8.43
2019-02-05T22:03:44.442Z,8.71
2019-02-05T22:06:13.833Z,8.52
2019-02-05T22:08:43.188Z,8.48
2019-02-05T22:11:12.551Z,8.62
2019-02-05T22:13:41.886Z,8.54
2019-02-05T22:16:11.335Z,8.54
2019-02-05T22:18:40.962Z,8.53
2019-02-05T22:21:30.178Z,8.84
2019-02-05T22:23:58.704Z,8.48
2019-02-05T22:26:28.012Z,8.45
2019-02-05T22:28:56.934Z,8.48
2019-02-05T22:31:26.238Z,8.64
2019-02-05T22:33:55.559Z,8.23
2019-02-05T22:36:23.975Z,8.50
2019-02-05T22:38:53.303Z,8.36
2019-02-05T22:41:22.977Z,8.52
2019-02-05T22:43:51.493Z,8.53
2019-02-05T22:46:20.005Z,8.30
2019-02-05T22:48:48.420Z,8.09
2019-02-05T22:51:17.737Z,8.13
2019-02-05T22:53:47.066Z,8.23
2019-02-05T22:56:16.389Z,8.12
2019-02-05T22:59:05.720Z,8.18
2019-02-05T23:01:55.739Z,8.03
2019-02-05T23:05:04.035Z,7.96
2019-02-05T23:07:32.658Z,7.98
2019-02-05T23:10:29.297Z,7.98
2019-02-05T23:13:01.364Z,8.16
2019-02-05T23:15:30.189Z,8.15
2019-02-05T23:17:58.797Z,8.03
2019-02-05T23:20:48.001Z,8.00
2019-02-05T23:23:17.321Z,7.96
2019-02-05T23:25:46.770Z,8.01
2019-02-05T23:28:16.123Z,8.08
2019-02-05T23:30:44.841Z,8.02
2019-02-05T23:33:13.757Z,8.05
2019-02-05T23:35:43.084Z,7.94
2019-02-05T23:38:11.677Z,8.03
2019-02-05T23:40:40.996Z,7.93
2019-02-05T23:43:10.426Z,7.67
2019-02-05T23:45:39.744Z,7.79
2019-02-05T23:48:09.372Z,7.80
2019-02-05T23:50:38.684Z,7.82
2019-02-05T23:53:07.997Z,7.82
2019-02-05T23:55:37.289Z,7.97
2019-02-05T23:58:05.701Z,7.85
